createdAt,value
2023-06-29T00:01:47.907Z,66.25
2023-06-29T00:04:19.909Z,66.23
2023-06-29T00:06:46.422Z,66.21
2023-06-29T00:09:12.926Z,66.25
2023-06-29T00:11:39.343Z,66.59
2023-06-29T00:14:05.708Z,66.65
2023-06-29T00:16:32.395Z,66.74
2023-06-29T00:19:02.157Z,66.75
2023-06-29T00:21:32.651Z,66.87
2023-06-29T00:23:59.690Z,67.62
2023-06-29T00:26:30.253Z,66.81
2023-06-29T00:28:57.582Z,67.17
2023-06-29T00:31:25.299Z,66.55
2023-06-29T00:33:52.143Z,67.16
2023-06-29T00:36:19.061Z,67.30
2023-06-29T00:38:45.470Z,67.55
2023-06-29T00:41:11.727Z,67.20
2023-06-29T00:43:38.284Z,67.22
2023-06-29T00:46:08.773Z,67.34
2023-06-29T00:48:37.326Z,67.44
2023-06-29T00:51:04.703Z,67.53
2023-06-29T00:53:31.368Z,67.26
2023-06-29T00:55:59.838Z,67.75
2023-06-29T00:58:26.822Z,67.71
2023-06-29T01:00:53.179Z,67.91
2023-06-29T01:03:21.496Z,67.71
2023-06-29T01:05:50.306Z,67.52
2023-06-29T01:08:23.086Z,67.95
2023-06-29T01:10:50.092Z,68.26
2023-06-29T01:13:19.142Z,68.30
2023-06-29T01:15:47.934Z,68.26
2023-06-29T01:18:16.759Z,67.44
2023-06-29T01:20:44.946Z,67.93
2023-06-29T01:23:37.669Z,68.01
2023-06-29T01:26:05.258Z,68.20
2023-06-29T01:28:33.223Z,68.32
2023-06-29T01:31:03.275Z,68.02
2023-06-29T01:33:31.013Z,68.27
2023-06-29T01:36:32.633Z,68.64
2023-06-29T01:39:03.632Z,68.60
2023-06-29T01:41:36.018Z,68.50
2023-06-29T01:44:06.162Z,68.56
2023-06-29T01:46:33.450Z,68.70
2023-06-29T01:49:00.144Z,68.94
2023-06-29T01:51:26.703Z,68.73
2023-06-29T01:53:54.268Z,68.99
2023-06-29T01:56:21.005Z,69.07
2023-06-29T01:58:47.371Z,68.91
2023-06-29T02:01:13.775Z,69.15
2023-06-29T02:03:40.216Z,68.86
2023-06-29T02:06:06.846Z,68.65
2023-06-29T02:08:34.549Z,68.83
2023-06-29T02:11:01.571Z,68.94
2023-06-29T02:13:27.912Z,68.74
2023-06-29T02:15:54.352Z,69.00
2023-06-29T02:18:20.756Z,68.64
2023-06-29T02:20:47.222Z,69.44
2023-06-29T02:23:13.520Z,69.39
2023-06-29T02:25:39.846Z,68.88
2023-06-29T02:28:06.213Z,69.06
2023-06-29T02:30:32.530Z,69.35
2023-06-29T02:32:59.011Z,69.55
2023-06-29T02:35:25.323Z,69.40
2023-06-29T02:37:51.671Z,69.74
2023-06-29T02:40:18.040Z,70.21
2023-06-29T02:42:44.494Z,70.16
2023-06-29T02:45:10.804Z,69.25
2023-06-29T02:47:37.264Z,69.99
2023-06-29T02:50:03.874Z,69.54
2023-06-29T02:52:30.239Z,69.45
2023-06-29T02:54:56.552Z,69.82
2023-06-29T02:57:22.881Z,69.83
2023-06-29T02:59:49.241Z,69.72
2023-06-29T03:02:15.620Z,69.78
2023-06-29T03:04:41.913Z,70.04
2023-06-29T03:07:08.447Z,70.54
2023-06-29T03:09:34.781Z,70.48
2023-06-29T03:12:01.103Z,70.58
2023-06-29T03:14:27.441Z,70.42
2023-06-29T03:16:53.883Z,70.69
2023-06-29T03:19:20.217Z,70.68
2023-06-29T03:21:46.559Z,70.27
2023-06-29T03:24:13.162Z,70.98
2023-06-29T03:26:39.511Z,70.63
2023-06-29T03:29:05.857Z,70.61
2023-06-29T03:31:32.246Z,71.67
2023-06-29T03:33:58.602Z,71.17
2023-06-29T03:36:25.119Z,71.14
2023-06-29T03:38:51.458Z,71.27
2023-06-29T03:41:17.811Z,71.06
2023-06-29T03:43:44.203Z,71.47
2023-06-29T03:46:10.820Z,71.60
2023-06-29T03:48:37.645Z,71.46
2023-06-29T03:51:04.123Z,71.16
2023-06-29T03:53:30.432Z,70.77
2023-06-29T03:55:56.855Z,71.05
2023-06-29T03:58:23.237Z,70.80
2023-06-29T04:00:49.568Z,70.85
2023-06-29T04:03:15.997Z,71.36
2023-06-29T04:05:44.507Z,71.69
2023-06-29T04:08:11.031Z,71.49
2023-06-29T04:10:37.378Z,71.19
2023-06-29T04:13:03.810Z,71.58
2023-06-29T04:15:31.328Z,70.99
2023-06-29T04:17:57.706Z,71.49
2023-06-29T04:20:24.107Z,70.86
2023-06-29T04:22:50.434Z,70.93
2023-06-29T04:25:16.872Z,71.16
2023-06-29T04:27:43.498Z,71.70
2023-06-29T04:30:10.241Z,71.18
2023-06-29T04:32:36.664Z,71.23
2023-06-29T04:35:03.181Z,71.12
2023-06-29T04:37:41.689Z,71.34
2023-06-29T04:40:15.274Z,71.05
2023-06-29T04:42:49.074Z,71.15
2023-06-29T04:45:20.156Z,70.91
2023-06-29T04:47:47.949Z,70.68
2023-06-29T04:50:14.592Z,71.20
2023-06-29T04:52:41.199Z,70.94
2023-06-29T04:55:09.176Z,70.51
2023-06-29T04:57:36.060Z,70.16
2023-06-29T05:00:02.459Z,69.24
2023-06-29T05:02:29.003Z,69.90
2023-06-29T05:04:55.568Z,69.82
2023-06-29T05:07:21.934Z,70.09
2023-06-29T05:09:48.258Z,69.59
2023-06-29T05:12:15.639Z,69.49
2023-06-29T05:14:41.976Z,68.89
2023-06-29T05:17:08.779Z,69.43
2023-06-29T05:19:36.690Z,68.69
2023-06-29T05:22:03.653Z,68.55
2023-06-29T05:24:31.028Z,68.38
2023-06-29T05:26:57.614Z,67.21
2023-06-29T05:29:24.254Z,66.99
2023-06-29T05:31:50.631Z,66.42
2023-06-29T05:34:17.008Z,66.12
2023-06-29T05:36:43.356Z,66.10
2023-06-29T05:39:09.738Z,65.48
2023-06-29T05:41:36.177Z,65.65
2023-06-29T05:44:02.633Z,65.46
2023-06-29T05:46:29.034Z,65.40
2023-06-29T05:48:55.410Z,65.13
2023-06-29T05:51:21.721Z,64.95
2023-06-29T05:53:48.121Z,64.47
2023-06-29T05:56:14.507Z,63.62
2023-06-29T05:58:40.829Z,62.94
2023-06-29T06:01:07.391Z,61.86
2023-06-29T06:03:34.389Z,61.81
2023-06-29T06:06:00.963Z,61.44
2023-06-29T06:08:27.306Z,61.19
2023-06-29T06:10:53.666Z,61.79
2023-06-29T06:13:20.134Z,61.64
2023-06-29T06:15:46.657Z,62.08
2023-06-29T06:18:13.082Z,61.58
2023-06-29T06:20:39.684Z,61.34
2023-06-29T06:23:06.626Z,60.62
2023-06-29T06:25:33.014Z,60.83
2023-06-29T06:27:59.348Z,60.37
2023-06-29T06:30:25.759Z,59.91
2023-06-29T06:32:52.187Z,59.89
2023-06-29T06:35:18.543Z,58.90
2023-06-29T06:37:44.914Z,59.11
2023-06-29T06:40:11.783Z,59.39
2023-06-29T06:42:38.608Z,58.76
2023-06-29T06:45:06.379Z,58.20
2023-06-29T06:47:36.546Z,57.83
2023-06-29T06:50:04.868Z,57.89
2023-06-29T06:52:31.293Z,57.52
2023-06-29T06:54:57.786Z,57.40
2023-06-29T06:57:24.240Z,56.02
2023-06-29T06:59:50.602Z,55.95
2023-06-29T07:02:17.265Z,56.06
2023-06-29T07:04:43.867Z,55.90
2023-06-29T07:07:10.394Z,54.55
2023-06-29T07:09:36.929Z,53.45
2023-06-29T07:12:03.562Z,53.36
2023-06-29T07:14:29.957Z,52.38
2023-06-29T07:16:56.859Z,53.24
2023-06-29T07:24:22.487Z,52.25
2023-06-29T07:26:49.099Z,51.89
2023-06-29T07:29:15.539Z,50.97
2023-06-29T07:31:41.873Z,50.15
2023-06-29T07:34:08.300Z,49.61
2023-06-29T07:36:35.458Z,49.19
2023-06-29T07:39:01.864Z,47.43
2023-06-29T07:41:28.694Z,46.64
2023-06-29T07:43:57.284Z,46.41
2023-06-29T07:46:24.409Z,44.93
2023-06-29T07:48:51.882Z,45.26
2023-06-29T07:51:18.792Z,44.37
2023-06-29T07:53:45.442Z,44.23
2023-06-29T07:56:11.857Z,44.32
2023-06-29T07:58:40.102Z,43.31
2023-06-29T08:01:07.068Z,41.96
2023-06-29T08:03:44.101Z,40.86
2023-06-29T08:08:47.947Z,35.84
2023-06-29T08:11:17.814Z,31.92
2023-06-29T08:13:44.168Z,28.82
2023-06-29T08:16:10.644Z,27.65
2023-06-29T08:18:37.163Z,26.76
2023-06-29T08:21:03.668Z,26.11
2023-06-29T08:23:32.850Z,26.85
2023-06-29T08:25:59.255Z,27.34
2023-06-29T08:28:25.610Z,30.25
2023-06-29T08:30:52.652Z,31.70
2023-06-29T08:33:19.101Z,32.71
2023-06-29T08:35:45.580Z,32.14
2023-06-29T08:38:11.953Z,31.17
2023-06-29T08:40:39.555Z,31.09
2023-06-29T08:43:06.014Z,32.22
2023-06-29T08:45:32.380Z,31.83
2023-06-29T08:48:01.483Z,31.89
2023-06-29T08:50:28.083Z,33.07
2023-06-29T08:52:55.715Z,34.22
2023-06-29T08:55:23.960Z,33.84
2023-06-29T08:57:50.481Z,31.14
2023-06-29T09:00:17.147Z,30.14
2023-06-29T09:02:44.507Z,29.08
2023-06-29T09:05:13.236Z,28.18
2023-06-29T09:07:41.556Z,29.07
2023-06-29T09:10:11.380Z,28.04
2023-06-29T09:12:38.039Z,28.07
2023-06-29T09:15:12.419Z,27.80
2023-06-29T09:17:45.621Z,28.71
2023-06-29T09:20:14.506Z,28.52
2023-06-29T09:22:41.914Z,29.79
2023-06-29T09:25:23.462Z,27.12
2023-06-29T09:28:08.547Z,27.90
2023-06-29T09:30:39.911Z,26.93
2023-06-29T09:33:13.538Z,26.95
2023-06-29T09:35:44.947Z,27.24
2023-06-29T09:38:11.702Z,26.22
2023-06-29T09:40:49.109Z,25.64
2023-06-29T09:43:17.228Z,26.58
2023-06-29T09:45:43.741Z,27.28
2023-06-29T09:50:49.204Z,30.09
2023-06-29T09:53:16.428Z,28.86
2023-06-29T09:55:43.783Z,29.17
2023-06-29T09:58:11.523Z,29.64
2023-06-29T10:00:38.626Z,31.54
2023-06-29T10:03:05.323Z,30.62
2023-06-29T10:05:33.071Z,30.29
2023-06-29T10:08:05.592Z,31.10
2023-06-29T10:10:34.438Z,30.99
2023-06-29T10:13:05.798Z,31.76
2023-06-29T10:15:34.164Z,30.68
2023-06-29T10:18:05.217Z,30.69
2023-06-29T10:20:33.842Z,31.15
2023-06-29T10:23:04.346Z,31.73
2023-06-29T10:25:33.477Z,30.91
2023-06-29T10:28:01.067Z,30.79
2023-06-29T10:30:27.371Z,32.84
2023-06-29T10:32:54.471Z,32.17
2023-06-29T10:35:26.810Z,33.09
2023-06-29T10:37:57.745Z,33.00
2023-06-29T10:40:27.045Z,32.58
2023-06-29T10:42:57.447Z,33.09
2023-06-29T10:45:23.829Z,32.97
2023-06-29T10:47:59.319Z,32.91
2023-06-29T10:50:29.683Z,33.17
2023-06-29T10:53:00.850Z,33.82
2023-06-29T10:55:32.198Z,33.82
2023-06-29T10:58:12.873Z,35.19
2023-06-29T11:00:39.685Z,34.71
2023-06-29T11:03:06.857Z,36.19
2023-06-29T11:05:34.341Z,35.66
2023-06-29T11:08:01.096Z,36.15
2023-06-29T11:10:27.578Z,35.72
2023-06-29T11:12:56.634Z,35.37
2023-06-29T11:15:23.961Z,36.00
2023-06-29T11:17:52.284Z,35.04
2023-06-29T11:20:23.861Z,35.89
2023-06-29T11:22:52.401Z,35.54
2023-06-29T11:25:21.233Z,36.72
2023-06-29T11:27:47.690Z,36.42
2023-06-29T11:30:14.200Z,37.32
2023-06-29T11:32:42.045Z,37.21
2023-06-29T11:35:13.706Z,36.97
2023-06-29T11:37:40.550Z,38.01
2023-06-29T11:40:18.008Z,37.79
2023-06-29T11:42:44.606Z,38.88
2023-06-29T11:45:11.931Z,39.01
2023-06-29T11:47:38.702Z,38.86
2023-06-29T11:50:08.616Z,39.17
2023-06-29T11:52:36.832Z,40.01
2023-06-29T11:55:08.504Z,39.88
2023-06-29T11:57:36.126Z,40.19
2023-06-29T12:00:05.166Z,40.50
2023-06-29T12:02:31.994Z,40.04
2023-06-29T12:04:59.965Z,40.09
2023-06-29T12:07:37.604Z,40.28
2023-06-29T12:10:14.596Z,40.36
2023-06-29T12:12:46.530Z,41.91
2023-06-29T12:15:17.062Z,44.15
2023-06-29T12:20:18.612Z,44.54
2023-06-29T12:22:47.056Z,45.84
2023-06-29T12:25:16.009Z,47.38
2023-06-29T12:27:44.286Z,47.69
2023-06-29T12:30:12.724Z,47.97
2023-06-29T12:32:39.244Z,49.69
2023-06-29T12:35:06.090Z,50.08
2023-06-29T12:37:32.458Z,51.12
2023-06-29T12:39:58.859Z,50.79
2023-06-29T12:42:25.231Z,50.84
2023-06-29T12:44:51.857Z,50.04
2023-06-29T12:47:21.458Z,50.17
2023-06-29T12:49:48.376Z,49.90
2023-06-29T12:52:16.903Z,48.59
2023-06-29T12:54:43.443Z,48.87
2023-06-29T12:57:10.160Z,48.60
2023-06-29T12:59:39.437Z,48.50
2023-06-29T13:02:06.968Z,48.06
2023-06-29T13:04:39.224Z,46.78
2023-06-29T13:07:06.638Z,47.11
2023-06-29T13:09:35.230Z,46.95
2023-06-29T13:12:02.275Z,47.00
2023-06-29T13:14:32.129Z,46.17
2023-06-29T13:16:59.386Z,45.16
2023-06-29T13:19:27.450Z,45.87
2023-06-29T13:21:55.326Z,44.30
2023-06-29T13:24:23.295Z,44.17
2023-06-29T13:26:51.147Z,44.86
2023-06-29T13:29:20.477Z,43.06
2023-06-29T13:31:47.140Z,42.82
2023-06-29T13:34:14.369Z,42.79
2023-06-29T13:36:40.737Z,41.76
2023-06-29T13:39:08.489Z,40.71
2023-06-29T13:41:39.678Z,40.84
2023-06-29T13:44:07.113Z,39.18
2023-06-29T13:46:33.500Z,38.35
2023-06-29T13:49:00.097Z,37.73
2023-06-29T13:51:31.201Z,39.51
2023-06-29T13:53:58.569Z,39.91
2023-06-29T13:56:25.370Z,39.65
2023-06-29T13:58:54.952Z,39.17
2023-06-29T14:01:21.868Z,40.95
2023-06-29T14:03:49.057Z,41.13
2023-06-29T14:06:19.595Z,41.66
2023-06-29T14:08:47.640Z,41.16
2023-06-29T14:11:14.069Z,41.61
2023-06-29T14:13:40.536Z,41.56
2023-06-29T14:16:07.005Z,40.93
2023-06-29T14:18:33.415Z,42.20
2023-06-29T14:20:59.813Z,40.21
2023-06-29T14:23:26.837Z,40.55
2023-06-29T14:25:53.190Z,39.96
2023-06-29T14:28:19.877Z,39.01
2023-06-29T14:30:46.689Z,37.96
2023-06-29T14:33:24.202Z,37.79
2023-06-29T14:35:58.922Z,37.05
2023-06-29T14:38:26.337Z,35.71
2023-06-29T14:40:52.725Z,36.43
2023-06-29T14:43:19.627Z,37.38
2023-06-29T14:45:46.197Z,37.43
2023-06-29T14:48:12.794Z,37.92
2023-06-29T14:50:39.197Z,39.46
2023-06-29T14:53:05.671Z,37.48
2023-06-29T14:55:32.084Z,36.82
2023-06-29T14:58:01.266Z,38.06
2023-06-29T15:00:27.758Z,37.15
2023-06-29T15:02:54.218Z,37.27
2023-06-29T15:05:20.679Z,36.01
2023-06-29T15:07:47.059Z,36.17
2023-06-29T15:10:13.456Z,36.43
2023-06-29T15:12:39.908Z,37.27
2023-06-29T15:15:06.953Z,36.60
2023-06-29T15:17:33.338Z,36.58
2023-06-29T15:20:00.855Z,35.86
2023-06-29T15:22:27.814Z,35.78
2023-06-29T15:24:54.610Z,37.72
2023-06-29T15:27:20.995Z,36.35
2023-06-29T15:29:50.600Z,36.76
2023-06-29T15:32:16.938Z,36.82
2023-06-29T15:34:43.290Z,36.45
2023-06-29T15:37:09.776Z,36.12
2023-06-29T15:39:36.391Z,37.53
2023-06-29T15:42:03.386Z,38.63
2023-06-29T15:44:29.745Z,37.86
2023-06-29T15:46:56.367Z,38.31
2023-06-29T15:49:23.055Z,38.53
2023-06-29T15:51:50.159Z,38.98
2023-06-29T15:54:18.087Z,39.28
2023-06-29T15:56:45.201Z,39.14
2023-06-29T15:59:12.342Z,40.17
2023-06-29T16:01:39.172Z,40.36
2023-06-29T16:04:17.117Z,40.11
2023-06-29T16:06:46.419Z,40.21
2023-06-29T16:09:13.176Z,40.81
2023-06-29T16:11:39.693Z,41.06
2023-06-29T16:14:06.166Z,41.55
2023-06-29T16:16:32.543Z,41.40
2023-06-29T16:18:58.900Z,40.71
2023-06-29T16:21:25.258Z,41.34
2023-06-29T16:23:51.675Z,41.73
2023-06-29T16:26:18.333Z,40.87
2023-06-29T16:28:44.735Z,41.45
2023-06-29T16:31:11.220Z,41.15
2023-06-29T16:33:37.864Z,40.98
2023-06-29T16:36:04.357Z,41.33
2023-06-29T16:38:30.709Z,41.60
2023-06-29T16:40:57.589Z,41.57
2023-06-29T16:43:23.977Z,41.41
2023-06-29T16:45:50.976Z,41.71
2023-06-29T16:48:17.445Z,41.46
2023-06-29T16:50:43.941Z,41.84
2023-06-29T16:53:10.425Z,41.46
2023-06-29T16:55:36.815Z,40.62
2023-06-29T16:58:03.932Z,40.64
2023-06-29T17:00:30.594Z,40.02
2023-06-29T17:02:57.073Z,39.95
2023-06-29T17:05:23.596Z,40.10
2023-06-29T17:07:50.164Z,39.89
2023-06-29T17:10:16.563Z,41.19
2023-06-29T17:12:42.978Z,41.23
2023-06-29T17:15:10.236Z,40.70
2023-06-29T17:17:36.707Z,41.21
2023-06-29T17:20:03.929Z,42.07
2023-06-29T17:22:30.356Z,42.01
2023-06-29T17:24:56.740Z,42.15
2023-06-29T17:27:23.162Z,41.70
2023-06-29T17:29:49.821Z,41.81
2023-06-29T17:32:16.206Z,41.96
2023-06-29T17:34:42.693Z,42.72
2023-06-29T17:37:10.571Z,42.14
2023-06-29T17:39:37.080Z,42.05
2023-06-29T17:42:03.770Z,42.67
2023-06-29T17:44:30.490Z,42.62
2023-06-29T17:46:57.192Z,42.80
2023-06-29T17:49:27.878Z,43.23
2023-06-29T17:51:54.826Z,43.16
2023-06-29T17:54:21.257Z,43.18
2023-06-29T17:56:47.589Z,43.01
2023-06-29T17:59:13.979Z,42.93
2023-06-29T18:01:40.400Z,43.13
2023-06-29T18:04:07.043Z,42.91
2023-06-29T18:06:33.678Z,43.29
2023-06-29T18:09:03.333Z,43.40
2023-06-29T18:11:29.727Z,43.79
2023-06-29T18:13:56.130Z,44.01
2023-06-29T18:16:25.638Z,43.62
2023-06-29T18:18:52.132Z,44.12
2023-06-29T18:21:21.070Z,44.23
2023-06-29T18:23:47.465Z,43.95
2023-06-29T18:26:13.870Z,44.33
2023-06-29T18:28:40.253Z,44.54
2023-06-29T18:31:07.778Z,44.78
2023-06-29T18:33:37.246Z,44.44
2023-06-29T18:36:06.704Z,44.84
2023-06-29T18:38:33.086Z,45.08
2023-06-29T18:41:04.173Z,45.44
2023-06-29T18:43:30.603Z,45.75
2023-06-29T18:45:57.061Z,45.89
2023-06-29T18:48:23.490Z,46.62
2023-06-29T18:50:49.840Z,47.10
2023-06-29T18:53:16.328Z,47.00
2023-06-29T18:55:42.975Z,47.15
2023-06-29T18:58:09.389Z,47.61
2023-06-29T19:00:36.842Z,47.50
2023-06-29T19:03:03.419Z,47.51
2023-06-29T19:05:30.821Z,47.78
2023-06-29T19:07:57.355Z,48.01
2023-06-29T19:10:23.792Z,48.49
2023-06-29T19:12:50.339Z,48.51
2023-06-29T19:15:16.980Z,48.39
2023-06-29T19:17:43.787Z,48.42
2023-06-29T19:20:10.877Z,48.62
2023-06-29T19:22:37.367Z,48.93
2023-06-29T19:25:07.873Z,49.17
2023-06-29T19:27:34.284Z,49.08
2023-06-29T19:30:00.694Z,49.11
2023-06-29T19:32:27.135Z,49.17
2023-06-29T19:34:53.550Z,49.78
2023-06-29T19:37:21.487Z,50.20
2023-06-29T19:39:49.737Z,50.53
2023-06-29T19:42:16.219Z,50.62
2023-06-29T19:44:42.540Z,51.31
2023-06-29T19:47:09.118Z,51.76
2023-06-29T19:49:35.491Z,52.03
2023-06-29T19:52:01.890Z,52.46
2023-06-29T19:54:28.269Z,53.04
2023-06-29T19:56:54.738Z,53.65
2023-06-29T19:59:21.259Z,53.75
2023-06-29T20:01:47.696Z,54.68
2023-06-29T20:04:14.163Z,55.21
2023-06-29T20:06:40.669Z,55.54
2023-06-29T20:09:07.081Z,55.89
2023-06-29T20:11:33.553Z,56.43
2023-06-29T20:13:59.934Z,56.86
2023-06-29T20:16:26.372Z,57.26
2023-06-29T20:18:52.816Z,58.42
2023-06-29T20:21:19.241Z,57.97
2023-06-29T20:23:51.236Z,58.60
2023-06-29T20:26:18.863Z,58.88
2023-06-29T20:28:45.462Z,58.76
2023-06-29T20:31:11.852Z,58.66
2023-06-29T20:33:38.402Z,58.42
2023-06-29T20:36:04.832Z,58.93
2023-06-29T20:38:31.260Z,59.17
2023-06-29T20:40:57.658Z,59.35
2023-06-29T20:43:23.983Z,59.16
2023-06-29T20:45:51.176Z,59.29
2023-06-29T20:48:17.846Z,59.49
2023-06-29T20:50:44.473Z,59.41
2023-06-29T20:53:11.327Z,59.98
2023-06-29T20:55:37.727Z,60.37
2023-06-29T20:58:04.195Z,59.79
2023-06-29T21:00:30.859Z,60.20
2023-06-29T21:02:57.492Z,60.34
2023-06-29T21:05:25.065Z,60.97
2023-06-29T21:07:53.377Z,61.14
2023-06-29T21:10:19.819Z,61.23
2023-06-29T21:12:46.472Z,61.57
2023-06-29T21:15:13.350Z,61.98
2023-06-29T21:17:39.902Z,62.19
2023-06-29T21:20:07.266Z,62.57
2023-06-29T21:22:35.368Z,62.72
2023-06-29T21:25:02.777Z,62.88
2023-06-29T21:27:30.260Z,63.25
2023-06-29T21:29:57.268Z,62.94
2023-06-29T21:32:23.819Z,63.22
2023-06-29T21:34:50.337Z,63.19
2023-06-29T21:37:16.944Z,63.21
2023-06-29T21:39:43.374Z,63.48
2023-06-29T21:42:09.851Z,63.24
2023-06-29T21:44:36.397Z,63.71
2023-06-29T21:47:03.776Z,63.86
2023-06-29T21:49:30.503Z,62.98
2023-06-29T21:51:57.038Z,63.67
2023-06-29T21:54:23.516Z,63.79
2023-06-29T21:56:52.569Z,63.99
2023-06-29T21:59:19.076Z,63.64
2023-06-29T22:01:45.552Z,63.92
2023-06-29T22:04:12.244Z,64.06
2023-06-29T22:06:38.690Z,64.17
2023-06-29T22:09:05.013Z,64.42
2023-06-29T22:11:31.446Z,64.41
2023-06-29T22:13:57.892Z,64.28
2023-06-29T22:16:24.426Z,64.42
2023-06-29T22:18:51.849Z,64.41
2023-06-29T22:21:22.020Z,64.88
2023-06-29T22:23:50.425Z,64.82
2023-06-29T22:26:17.287Z,64.81
2023-06-29T22:28:44.228Z,65.28
2023-06-29T22:31:10.940Z,65.21
2023-06-29T22:33:37.347Z,65.03
2023-06-29T22:36:04.069Z,65.56
2023-06-29T22:38:30.953Z,65.72
2023-06-29T22:40:58.332Z,65.69
2023-06-29T22:43:24.676Z,65.91
2023-06-29T22:45:51.775Z,66.44
2023-06-29T22:48:21.904Z,65.94
2023-06-29T22:50:48.336Z,65.95
2023-06-29T22:53:14.720Z,66.07
2023-06-29T22:55:41.491Z,65.20
2023-06-29T22:58:07.836Z,64.97
2023-06-29T23:00:34.215Z,65.20
2023-06-29T23:03:00.811Z,65.20
2023-06-29T23:05:27.247Z,65.04
2023-06-29T23:07:53.597Z,65.86
2023-06-29T23:10:20.907Z,65.69
2023-06-29T23:12:47.425Z,66.03
2023-06-29T23:15:14.537Z,66.42
2023-06-29T23:17:41.242Z,65.59
2023-06-29T23:20:11.822Z,66.11
2023-06-29T23:22:38.955Z,66.12
2023-06-29T23:25:08.158Z,65.96
2023-06-29T23:27:38.210Z,65.56
2023-06-29T23:30:09.323Z,66.52
2023-06-29T23:32:37.217Z,66.50
2023-06-29T23:35:07.117Z,65.95
2023-06-29T23:37:33.471Z,66.53
2023-06-29T23:39:59.854Z,66.37
2023-06-29T23:42:26.304Z,66.89
2023-06-29T23:44:53.243Z,67.01
2023-06-29T23:47:19.762Z,67.22
2023-06-29T23:49:48.342Z,66.49
2023-06-29T23:52:15.036Z,66.08
2023-06-29T23:54:41.521Z,66.86
2023-06-29T23:57:07.907Z,67.06
2023-06-29T23:59:34.245Z,67.22
